sensor_id;sensor_type;location;lat;lon;timestamp;P1;durP1;ratioP1;P2;durP2;ratioP2
2674;SDS011;1347;42.122;24.746;2023-04-08T00:00:27;15.37;;;13.77;;
2674;SDS011;1347;42.122;24.746;2023-04-08T00:02:53;15.40;;;13.90;;
2674;SDS011;1347;42.122;24.746;2023-04-08T00:05:20;16.63;;;14.87;;
2674;SDS011;1347;42.122;24.746;2023-04-08T00:07:47;15.70;;;14.17;;
2674;SDS011;1347;42.122;24.746;2023-04-08T00:10:14;15.97;;;14.20;;
2674;SDS011;1347;42.122;24.746;2023-04-08T00:12:41;15.83;;;14.23;;
2674;SDS011;1347;42.122;24.746;2023-04-08T00:15:08;21.33;;;14.77;;
2674;SDS011;1347;42.122;24.746;2023-04-08T00:17:37;15.17;;;13.57;;
2674;SDS011;1347;42.122;24.746;2023-04-08T00:20:04;13.53;;;12.10;;
2674;SDS011;1347;42.122;24.746;2023-04-08T00:22:31;16.67;;;13.63;;
2674;SDS011;1347;42.122;24.746;2023-04-08T00:24:58;15.57;;;13.97;;
2674;SDS011;1347;42.122;24.746;2023-04-08T00:27:25;15.87;;;14.27;;
2674;SDS011;1347;42.122;24.746;2023-04-08T00:29:53;16.40;;;14.70;;
2674;SDS011;1347;42.122;24.746;2023-04-08T00:32:19;19.20;;;15.50;;
2674;SDS011;1347;42.122;24.746;2023-04-08T00:34:48;20.10;;;15.43;;
2674;SDS011;1347;42.122;24.746;2023-04-08T00:37:15;21.03;;;16.47;;
2674;SDS011;1347;42.122;24.746;2023-04-08T00:39:42;19.90;;;17.47;;
2674;SDS011;1347;42.122;24.746;2023-04-08T00:42:08;21.37;;;17.20;;
2674;SDS011;1347;42.122;24.746;2023-04-08T00:44:35;19.13;;;16.93;;
2674;SDS011;1347;42.122;24.746;2023-04-08T00:47:02;18.30;;;16.07;;
2674;SDS011;1347;42.122;24.746;2023-04-08T00:49:29;20.63;;;17.47;;
2674;SDS011;1347;42.122;24.746;2023-04-08T00:51:59;19.40;;;17.40;;
2674;SDS011;1347;42.122;24.746;2023-04-08T00:54:26;20.00;;;16.90;;
2674;SDS011;1347;42.122;24.746;2023-04-08T00:56:53;19.77;;;17.53;;
2674;SDS011;1347;42.122;24.746;2023-04-08T00:59:20;23.10;;;19.63;;
2674;SDS011;1347;42.122;24.746;2023-04-08T01:01:50;19.37;;;17.37;;
2674;SDS011;1347;42.122;24.746;2023-04-08T01:04:26;20.97;;;17.73;;
2674;SDS011;1347;42.122;24.746;2023-04-08T01:07:00;20.80;;;18.70;;
2674;SDS011;1347;42.122;24.746;2023-04-08T01:09:34;20.83;;;18.53;;
2674;SDS011;1347;42.122;24.746;2023-04-08T01:12:05;24.77;;;19.30;;
2674;SDS011;1347;42.122;24.746;2023-04-08T01:14:37;22.07;;;19.17;;
2674;SDS011;1347;42.122;24.746;2023-04-08T01:17:07;23.20;;;19.70;;
2674;SDS011;1347;42.122;24.746;2023-04-08T01:19:37;23.67;;;18.30;;
2674;SDS011;1347;42.122;24.746;2023-04-08T01:22:09;22.37;;;18.70;;
2674;SDS011;1347;42.122;24.746;2023-04-08T01:24:44;19.03;;;17.03;;
2674;SDS011;1347;42.122;24.746;2023-04-08T01:27:14;20.53;;;18.43;;
2674;SDS011;1347;42.122;24.746;2023-04-08T01:29:43;23.60;;;19.87;;
2674;SDS011;1347;42.122;24.746;2023-04-08T01:32:12;19.50;;;17.20;;
2674;SDS011;1347;42.122;24.746;2023-04-08T01:34:41;23.90;;;17.70;;
2674;SDS011;1347;42.122;24.746;2023-04-08T01:37:09;21.67;;;19.10;;
2674;SDS011;1347;42.122;24.746;2023-04-08T01:39:37;21.03;;;18.90;;
2674;SDS011;1347;42.122;24.746;2023-04-08T01:42:06;21.23;;;18.40;;
2674;SDS011;1347;42.122;24.746;2023-04-08T01:44:36;21.23;;;17.80;;
2674;SDS011;1347;42.122;24.746;2023-04-08T01:47:05;22.20;;;18.33;;
2674;SDS011;1347;42.122;24.746;2023-04-08T01:49:33;22.03;;;18.93;;
2674;SDS011;1347;42.122;24.746;2023-04-08T01:52:00;23.73;;;19.83;;
2674;SDS011;1347;42.122;24.746;2023-04-08T01:54:29;23.87;;;21.27;;
2674;SDS011;1347;42.122;24.746;2023-04-08T01:56:56;21.60;;;18.70;;
2674;SDS011;1347;42.122;24.746;2023-04-08T01:59:26;23.57;;;20.27;;
2674;SDS011;1347;42.122;24.746;2023-04-08T02:01:58;24.40;;;18.80;;
2674;SDS011;1347;42.122;24.746;2023-04-08T02:04:27;21.10;;;18.97;;
2674;SDS011;1347;42.122;24.746;2023-04-08T02:06:54;20.77;;;18.57;;
2674;SDS011;1347;42.122;24.746;2023-04-08T02:09:22;21.97;;;19.50;;
2674;SDS011;1347;42.122;24.746;2023-04-08T02:11:51;22.00;;;19.37;;
2674;SDS011;1347;42.122;24.746;2023-04-08T02:14:18;24.53;;;20.30;;
2674;SDS011;1347;42.122;24.746;2023-04-08T02:16:47;24.37;;;20.43;;
2674;SDS011;1347;42.122;24.746;2023-04-08T02:19:22;23.23;;;20.70;;
2674;SDS011;1347;42.122;24.746;2023-04-08T02:21:54;24.77;;;20.67;;
2674;SDS011;1347;42.122;24.746;2023-04-08T02:24:24;24.10;;;20.10;;
2674;SDS011;1347;42.122;24.746;2023-04-08T02:26:53;27.87;;;23.17;;
2674;SDS011;1347;42.122;24.746;2023-04-08T02:29:22;27.03;;;21.73;;
2674;SDS011;1347;42.122;24.746;2023-04-08T02:31:50;29.63;;;21.93;;
2674;SDS011;1347;42.122;24.746;2023-04-08T02:34:19;25.83;;;20.83;;
2674;SDS011;1347;42.122;24.746;2023-04-08T02:36:47;30.90;;;22.80;;
2674;SDS011;1347;42.122;24.746;2023-04-08T02:39:15;27.10;;;21.87;;
2674;SDS011;1347;42.122;24.746;2023-04-08T02:41:42;25.97;;;22.23;;
2674;SDS011;1347;42.122;24.746;2023-04-08T02:44:09;24.47;;;21.20;;
2674;SDS011;1347;42.122;24.746;2023-04-08T02:46:36;27.13;;;22.47;;
2674;SDS011;1347;42.122;24.746;2023-04-08T02:49:02;24.20;;;21.60;;
2674;SDS011;1347;42.122;24.746;2023-04-08T02:51:31;26.53;;;22.37;;
2674;SDS011;1347;42.122;24.746;2023-04-08T02:53:58;26.60;;;21.90;;
2674;SDS011;1347;42.122;24.746;2023-04-08T02:56:25;24.40;;;21.80;;
2674;SDS011;1347;42.122;24.746;2023-04-08T02:58:52;28.73;;;22.77;;
2674;SDS011;1347;42.122;24.746;2023-04-08T03:01:20;27.83;;;22.90;;
2674;SDS011;1347;42.122;24.746;2023-04-08T03:03:47;30.33;;;23.50;;
2674;SDS011;1347;42.122;24.746;2023-04-08T03:06:14;27.00;;;23.40;;
2674;SDS011;1347;42.122;24.746;2023-04-08T03:08:42;29.50;;;21.83;;
2674;SDS011;1347;42.122;24.746;2023-04-08T03:11:09;30.03;;;23.63;;
2674;SDS011;1347;42.122;24.746;2023-04-08T03:13:36;26.17;;;23.07;;
2674;SDS011;1347;42.122;24.746;2023-04-08T03:16:03;33.20;;;24.07;;
2674;SDS011;1347;42.122;24.746;2023-04-08T03:18:31;32.90;;;26.10;;
2674;SDS011;1347;42.122;24.746;2023-04-08T03:20:57;29.30;;;24.63;;
2674;SDS011;1347;42.122;24.746;2023-04-08T03:23:25;26.50;;;21.20;;
2674;SDS011;1347;42.122;24.746;2023-04-08T03:25:53;26.70;;;23.07;;
2674;SDS011;1347;42.122;24.746;2023-04-08T03:28:20;31.07;;;22.50;;
2674;SDS011;1347;42.122;24.746;2023-04-08T03:30:47;26.63;;;23.80;;
2674;SDS011;1347;42.122;24.746;2023-04-08T03:33:14;26.20;;;23.40;;
2674;SDS011;1347;42.122;24.746;2023-04-08T03:35:41;37.63;;;25.53;;
2674;SDS011;1347;42.122;24.746;2023-04-08T03:38:08;29.33;;;24.47;;
2674;SDS011;1347;42.122;24.746;2023-04-08T03:40:35;30.33;;;24.80;;
2674;SDS011;1347;42.122;24.746;2023-04-08T03:43:03;29.90;;;22.90;;
2674;SDS011;1347;42.122;24.746;2023-04-08T03:45:32;31.53;;;24.73;;
2674;SDS011;1347;42.122;24.746;2023-04-08T03:47:59;30.07;;;25.20;;
2674;SDS011;1347;42.122;24.746;2023-04-08T03:50:26;28.77;;;23.30;;
2674;SDS011;1347;42.122;24.746;2023-04-08T03:52:53;30.73;;;25.30;;
2674;SDS011;1347;42.122;24.746;2023-04-08T03:55:20;27.43;;;24.50;;
2674;SDS011;1347;42.122;24.746;2023-04-08T03:57:47;29.67;;;26.27;;
2674;SDS011;1347;42.122;24.746;2023-04-08T04:00:16;29.63;;;25.73;;
2674;SDS011;1347;42.122;24.746;2023-04-08T04:02:43;28.30;;;24.43;;
2674;SDS011;1347;42.122;24.746;2023-04-08T04:05:09;31.77;;;24.53;;
2674;SDS011;1347;42.122;24.746;2023-04-08T04:07:36;27.00;;;23.53;;
2674;SDS011;1347;42.122;24.746;2023-04-08T04:10:04;30.17;;;26.67;;
2674;SDS011;1347;42.122;24.746;2023-04-08T04:12:31;31.10;;;24.47;;
2674;SDS011;1347;42.122;24.746;2023-04-08T04:14:58;32.57;;;25.50;;
2674;SDS011;1347;42.122;24.746;2023-04-08T04:17:27;30.40;;;25.90;;
2674;SDS011;1347;42.122;24.746;2023-04-08T04:19:53;31.20;;;25.90;;
2674;SDS011;1347;42.122;24.746;2023-04-08T04:22:21;31.77;;;26.93;;
2674;SDS011;1347;42.122;24.746;2023-04-08T04:24:48;28.33;;;25.23;;
2674;SDS011;1347;42.122;24.746;2023-04-08T04:27:15;31.17;;;26.33;;
2674;SDS011;1347;42.122;24.746;2023-04-08T04:29:42;33.80;;;25.50;;
2674;SDS011;1347;42.122;24.746;2023-04-08T04:32:08;30.70;;;24.53;;
2674;SDS011;1347;42.122;24.746;2023-04-08T04:34:37;31.10;;;24.67;;
2674;SDS011;1347;42.122;24.746;2023-04-08T04:37:04;31.70;;;24.90;;
2674;SDS011;1347;42.122;24.746;2023-04-08T04:39:30;30.63;;;25.60;;
2674;SDS011;1347;42.122;24.746;2023-04-08T04:41:57;31.80;;;26.17;;
2674;SDS011;1347;42.122;24.746;2023-04-08T04:44:24;29.63;;;24.00;;
2674;SDS011;1347;42.122;24.746;2023-04-08T04:46:51;31.50;;;25.30;;
2674;SDS011;1347;42.122;24.746;2023-04-08T04:49:18;32.13;;;25.10;;
2674;SDS011;1347;42.122;24.746;2023-04-08T04:51:46;33.63;;;27.00;;
2674;SDS011;1347;42.122;24.746;2023-04-08T04:54:13;35.97;;;27.27;;
2674;SDS011;1347;42.122;24.746;2023-04-08T04:56:40;31.00;;;26.23;;
2674;SDS011;1347;42.122;24.746;2023-04-08T04:59:07;37.10;;;27.50;;
2674;SDS011;1347;42.122;24.746;2023-04-08T05:01:34;34.27;;;27.60;;
2674;SDS011;1347;42.122;24.746;2023-04-08T05:04:01;32.73;;;26.60;;
2674;SDS011;1347;42.122;24.746;2023-04-08T05:06:28;38.53;;;28.43;;
2674;SDS011;1347;42.122;24.746;2023-04-08T05:08:56;35.93;;;27.67;;
2674;SDS011;1347;42.122;24.746;2023-04-08T05:11:23;35.50;;;27.20;;
2674;SDS011;1347;42.122;24.746;2023-04-08T05:13:50;38.60;;;29.10;;
2674;SDS011;1347;42.122;24.746;2023-04-08T05:16:17;33.13;;;28.70;;
2674;SDS011;1347;42.122;24.746;2023-04-08T05:18:44;38.33;;;29.00;;
2674;SDS011;1347;42.122;24.746;2023-04-08T05:21:11;33.30;;;27.50;;
2674;SDS011;1347;42.122;24.746;2023-04-08T05:23:38;30.53;;;25.73;;
2674;SDS011;1347;42.122;24.746;2023-04-08T05:26:07;33.77;;;27.10;;
2674;SDS011;1347;42.122;24.746;2023-04-08T05:28:34;38.73;;;28.40;;
2674;SDS011;1347;42.122;24.746;2023-04-08T05:31:01;38.43;;;28.90;;
2674;SDS011;1347;42.122;24.746;2023-04-08T05:33:28;37.23;;;30.00;;
2674;SDS011;1347;42.122;24.746;2023-04-08T05:35:55;38.40;;;30.30;;
2674;SDS011;1347;42.122;24.746;2023-04-08T05:38:22;35.40;;;28.13;;
2674;SDS011;1347;42.122;24.746;2023-04-08T05:40:49;37.40;;;29.07;;
2674;SDS011;1347;42.122;24.746;2023-04-08T05:43:17;40.33;;;30.90;;
2674;SDS011;1347;42.122;24.746;2023-04-08T05:45:44;37.00;;;30.40;;
2674;SDS011;1347;42.122;24.746;2023-04-08T05:48:11;37.80;;;29.83;;
2674;SDS011;1347;42.122;24.746;2023-04-08T05:50:37;38.47;;;31.50;;
2674;SDS011;1347;42.122;24.746;2023-04-08T05:53:04;43.90;;;31.50;;
2674;SDS011;1347;42.122;24.746;2023-04-08T05:55:31;41.93;;;30.77;;
2674;SDS011;1347;42.122;24.746;2023-04-08T05:57:58;46.10;;;30.33;;
2674;SDS011;1347;42.122;24.746;2023-04-08T06:00:27;40.63;;;31.77;;
2674;SDS011;1347;42.122;24.746;2023-04-08T06:02:54;41.53;;;32.20;;
2674;SDS011;1347;42.122;24.746;2023-04-08T06:05:21;35.40;;;28.20;;
2674;SDS011;1347;42.122;24.746;2023-04-08T06:07:47;40.70;;;28.97;;
2674;SDS011;1347;42.122;24.746;2023-04-08T06:10:15;37.90;;;29.63;;
2674;SDS011;1347;42.122;24.746;2023-04-08T06:12:42;42.37;;;30.53;;
2674;SDS011;1347;42.122;24.746;2023-04-08T06:15:09;52.80;;;39.77;;
2674;SDS011;1347;42.122;24.746;2023-04-08T06:17:37;43.60;;;33.10;;
2674;SDS011;1347;42.122;24.746;2023-04-08T06:20:05;37.53;;;29.60;;
2674;SDS011;1347;42.122;24.746;2023-04-08T06:22:33;44.93;;;31.77;;
2674;SDS011;1347;42.122;24.746;2023-04-08T06:25:01;43.57;;;33.20;;
2674;SDS011;1347;42.122;24.746;2023-04-08T06:27:28;38.13;;;30.60;;
2674;SDS011;1347;42.122;24.746;2023-04-08T06:29:55;44.77;;;30.97;;
2674;SDS011;1347;42.122;24.746;2023-04-08T06:32:22;42.80;;;30.70;;
2674;SDS011;1347;42.122;24.746;2023-04-08T06:34:50;37.13;;;29.80;;
2674;SDS011;1347;42.122;24.746;2023-04-08T06:37:17;36.93;;;30.07;;
2674;SDS011;1347;42.122;24.746;2023-04-08T06:39:44;37.37;;;30.17;;
2674;SDS011;1347;42.122;24.746;2023-04-08T06:42:11;33.07;;;27.93;;
2674;SDS011;1347;42.122;24.746;2023-04-08T06:44:38;36.77;;;30.70;;
2674;SDS011;1347;42.122;24.746;2023-04-08T06:47:05;34.93;;;28.33;;
2674;SDS011;1347;42.122;24.746;2023-04-08T06:49:32;37.30;;;29.87;;
2674;SDS011;1347;42.122;24.746;2023-04-08T06:52:00;38.97;;;28.83;;
2674;SDS011;1347;42.122;24.746;2023-04-08T06:54:27;37.10;;;28.47;;
2674;SDS011;1347;42.122;24.746;2023-04-08T06:56:54;36.17;;;27.53;;
2674;SDS011;1347;42.122;24.746;2023-04-08T06:59:21;35.83;;;27.80;;
2674;SDS011;1347;42.122;24.746;2023-04-08T07:01:51;30.90;;;27.60;;
2674;SDS011;1347;42.122;24.746;2023-04-08T07:04:18;38.53;;;27.00;;
2674;SDS011;1347;42.122;24.746;2023-04-08T07:06:45;32.83;;;27.57;;
2674;SDS011;1347;42.122;24.746;2023-04-08T07:09:14;34.63;;;27.67;;
2674;SDS011;1347;42.122;24.746;2023-04-08T07:11:41;31.40;;;26.40;;
2674;SDS011;1347;42.122;24.746;2023-04-08T07:14:08;31.80;;;25.63;;
2674;SDS011;1347;42.122;24.746;2023-04-08T07:16:35;29.47;;;24.67;;
2674;SDS011;1347;42.122;24.746;2023-04-08T07:19:04;27.63;;;24.70;;
2674;SDS011;1347;42.122;24.746;2023-04-08T07:21:33;30.87;;;26.10;;
2674;SDS011;1347;42.122;24.746;2023-04-08T07:24:03;29.40;;;26.20;;
2674;SDS011;1347;42.122;24.746;2023-04-08T07:26:32;32.23;;;25.13;;
2674;SDS011;1347;42.122;24.746;2023-04-08T07:29:01;27.97;;;24.33;;
2674;SDS011;1347;42.122;24.746;2023-04-08T07:31:28;29.90;;;25.20;;
2674;SDS011;1347;42.122;24.746;2023-04-08T07:33:57;28.80;;;25.77;;
2674;SDS011;1347;42.122;24.746;2023-04-08T07:36:26;27.60;;;24.60;;
2674;SDS011;1347;42.122;24.746;2023-04-08T07:38:54;26.73;;;23.83;;
2674;SDS011;1347;42.122;24.746;2023-04-08T07:41:21;25.77;;;22.97;;
2674;SDS011;1347;42.122;24.746;2023-04-08T07:43:52;28.90;;;24.73;;
2674;SDS011;1347;42.122;24.746;2023-04-08T07:46:20;28.37;;;25.27;;
2674;SDS011;1347;42.122;24.746;2023-04-08T07:48:47;26.50;;;23.60;;
2674;SDS011;1347;42.122;24.746;2023-04-08T07:51:13;28.17;;;22.97;;
2674;SDS011;1347;42.122;24.746;2023-04-08T07:53:40;25.27;;;22.77;;
2674;SDS011;1347;42.122;24.746;2023-04-08T07:56:10;24.40;;;21.97;;
2674;SDS011;1347;42.122;24.746;2023-04-08T07:58:38;26.73;;;24.03;;
2674;SDS011;1347;42.122;24.746;2023-04-08T08:01:14;26.13;;;23.63;;
2674;SDS011;1347;42.122;24.746;2023-04-08T08:03:45;26.03;;;23.47;;
2674;SDS011;1347;42.122;24.746;2023-04-08T08:06:12;27.37;;;24.73;;
2674;SDS011;1347;42.122;24.746;2023-04-08T08:08:39;27.77;;;24.93;;
2674;SDS011;1347;42.122;24.746;2023-04-08T08:11:06;29.07;;;25.10;;
2674;SDS011;1347;42.122;24.746;2023-04-08T08:13:33;27.47;;;24.57;;
2674;SDS011;1347;42.122;24.746;2023-04-08T08:16:01;29.53;;;26.47;;
2674;SDS011;1347;42.122;24.746;2023-04-08T08:18:29;26.93;;;24.20;;
2674;SDS011;1347;42.122;24.746;2023-04-08T08:20:56;27.53;;;24.73;;
2674;SDS011;1347;42.122;24.746;2023-04-08T08:23:23;27.93;;;24.37;;
2674;SDS011;1347;42.122;24.746;2023-04-08T08:25:57;29.20;;;24.37;;
2674;SDS011;1347;42.122;24.746;2023-04-08T08:28:24;27.47;;;24.57;;
2674;SDS011;1347;42.122;24.746;2023-04-08T08:30:51;26.97;;;24.27;;
2674;SDS011;1347;42.122;24.746;2023-04-08T08:33:18;27.97;;;24.87;;
2674;SDS011;1347;42.122;24.746;2023-04-08T08:35:47;25.63;;;23.13;;
2674;SDS011;1347;42.122;24.746;2023-04-08T08:38:14;27.73;;;25.10;;
2674;SDS011;1347;42.122;24.746;2023-04-08T08:40:42;27.93;;;24.97;;
2674;SDS011;1347;42.122;24.746;2023-04-08T08:43:09;24.70;;;22.33;;
2674;SDS011;1347;42.122;24.746;2023-04-08T08:45:37;29.07;;;23.70;;
2674;SDS011;1347;42.122;24.746;2023-04-08T08:48:05;25.07;;;22.50;;
2674;SDS011;1347;42.122;24.746;2023-04-08T08:50:32;26.10;;;23.50;;
2674;SDS011;1347;42.122;24.746;2023-04-08T08:53:01;24.47;;;22.20;;
2674;SDS011;1347;42.122;24.746;2023-04-08T08:55:29;24.97;;;22.50;;
2674;SDS011;1347;42.122;24.746;2023-04-08T08:57:58;26.10;;;23.80;;
2674;SDS011;1347;42.122;24.746;2023-04-08T09:00:31;25.67;;;23.10;;
2674;SDS011;1347;42.122;24.746;2023-04-08T09:03:14;26.30;;;23.70;;
2674;SDS011;1347;42.122;24.746;2023-04-08T09:05:48;25.63;;;23.47;;
2674;SDS011;1347;42.122;24.746;2023-04-08T09:08:27;25.17;;;22.17;;
2674;SDS011;1347;42.122;24.746;2023-04-08T09:11:09;25.30;;;23.10;;
2674;SDS011;1347;42.122;24.746;2023-04-08T09:13:37;24.37;;;21.87;;
2674;SDS011;1347;42.122;24.746;2023-04-08T09:16:05;24.27;;;21.87;;
2674;SDS011;1347;42.122;24.746;2023-04-08T09:18:34;27.50;;;24.80;;
2674;SDS011;1347;42.122;24.746;2023-04-08T09:21:02;24.30;;;22.00;;
2674;SDS011;1347;42.122;24.746;2023-04-08T09:23:39;23.97;;;21.50;;
2674;SDS011;1347;42.122;24.746;2023-04-08T09:26:08;25.10;;;22.60;;
2674;SDS011;1347;42.122;24.746;2023-04-08T09:28:35;23.90;;;20.70;;
2674;SDS011;1347;42.122;24.746;2023-04-08T09:31:18;26.33;;;23.73;;
2674;SDS011;1347;42.122;24.746;2023-04-08T09:33:48;25.93;;;23.33;;
2674;SDS011;1347;42.122;24.746;2023-04-08T09:36:15;23.80;;;21.40;;
2674;SDS011;1347;42.122;24.746;2023-04-08T09:38:44;26.60;;;24.00;;
2674;SDS011;1347;42.122;24.746;2023-04-08T09:41:12;22.53;;;20.33;;
2674;SDS011;1347;42.122;24.746;2023-04-08T09:43:41;21.40;;;19.30;;
2674;SDS011;1347;42.122;24.746;2023-04-08T09:46:13;22.53;;;19.97;;
2674;SDS011;1347;42.122;24.746;2023-04-08T09:48:45;20.53;;;18.53;;
2674;SDS011;1347;42.122;24.746;2023-04-08T09:51:15;34.47;;;25.70;;
2674;SDS011;1347;42.122;24.746;2023-04-08T09:53:46;23.40;;;21.00;;
2674;SDS011;1347;42.122;24.746;2023-04-08T09:56:16;22.80;;;20.50;;
2674;SDS011;1347;42.122;24.746;2023-04-08T09:58:48;21.30;;;19.30;;
2674;SDS011;1347;42.122;24.746;2023-04-08T10:01:21;21.87;;;19.90;;
2674;SDS011;1347;42.122;24.746;2023-04-08T10:03:54;22.53;;;20.23;;
2674;SDS011;1347;42.122;24.746;2023-04-08T10:06:25;24.83;;;22.50;;
2674;SDS011;1347;42.122;24.746;2023-04-08T10:08:55;23.17;;;20.67;;
2674;SDS011;1347;42.122;24.746;2023-04-08T10:11:24;29.90;;;21.10;;
2674;SDS011;1347;42.122;24.746;2023-04-08T10:13:51;23.23;;;21.03;;
2674;SDS011;1347;42.122;24.746;2023-04-08T10:16:19;25.10;;;20.80;;
2674;SDS011;1347;42.122;24.746;2023-04-08T10:18:49;23.20;;;20.90;;
2674;SDS011;1347;42.122;24.746;2023-04-08T10:21:35;22.60;;;19.73;;
2674;SDS011;1347;42.122;24.746;2023-04-08T10:24:08;23.27;;;20.97;;
2674;SDS011;1347;42.122;24.746;2023-04-08T10:26:36;24.60;;;22.10;;
2674;SDS011;1347;42.122;24.746;2023-04-08T10:32:01;24.10;;;21.80;;
2674;SDS011;1347;42.122;24.746;2023-04-08T10:34:28;25.70;;;23.30;;
2674;SDS011;1347;42.122;24.746;2023-04-08T10:36:55;24.33;;;21.93;;
2674;SDS011;1347;42.122;24.746;2023-04-08T10:39:27;24.17;;;21.67;;
2674;SDS011;1347;42.122;24.746;2023-04-08T10:41:55;22.30;;;20.10;;
2674;SDS011;1347;42.122;24.746;2023-04-08T10:44:23;25.63;;;23.03;;
2674;SDS011;1347;42.122;24.746;2023-04-08T10:46:51;23.63;;;21.23;;
2674;SDS011;1347;42.122;24.746;2023-04-08T10:49:19;25.80;;;23.03;;
2674;SDS011;1347;42.122;24.746;2023-04-08T10:51:46;25.93;;;23.40;;
2674;SDS011;1347;42.122;24.746;2023-04-08T10:54:13;24.07;;;21.77;;
2674;SDS011;1347;42.122;24.746;2023-04-08T10:56:47;24.20;;;21.90;;
2674;SDS011;1347;42.122;24.746;2023-04-08T10:59:15;24.57;;;22.23;;
2674;SDS011;1347;42.122;24.746;2023-04-08T11:01:44;24.20;;;21.80;;
2674;SDS011;1347;42.122;24.746;2023-04-08T11:04:12;24.87;;;22.43;;
2674;SDS011;1347;42.122;24.746;2023-04-08T11:06:41;24.50;;;21.97;;
2674;SDS011;1347;42.122;24.746;2023-04-08T11:09:09;22.80;;;20.50;;
2674;SDS011;1347;42.122;24.746;2023-04-08T11:11:36;23.87;;;21.60;;
2674;SDS011;1347;42.122;24.746;2023-04-08T11:14:04;21.97;;;19.87;;
2674;SDS011;1347;42.122;24.746;2023-04-08T11:16:32;21.23;;;19.03;;
2674;SDS011;1347;42.122;24.746;2023-04-08T11:19:01;23.70;;;21.17;;
2674;SDS011;1347;42.122;24.746;2023-04-08T11:21:29;21.63;;;19.40;;
2674;SDS011;1347;42.122;24.746;2023-04-08T11:23:56;20.80;;;18.73;;
2674;SDS011;1347;42.122;24.746;2023-04-08T11:26:24;20.17;;;18.07;;
2674;SDS011;1347;42.122;24.746;2023-04-08T11:28:51;20.87;;;18.87;;
2674;SDS011;1347;42.122;24.746;2023-04-08T11:31:21;22.53;;;18.53;;
2674;SDS011;1347;42.122;24.746;2023-04-08T11:33:48;19.00;;;17.10;;
2674;SDS011;1347;42.122;24.746;2023-04-08T11:36:18;20.20;;;18.20;;
2674;SDS011;1347;42.122;24.746;2023-04-08T11:38:46;18.90;;;17.00;;
2674;SDS011;1347;42.122;24.746;2023-04-08T11:41:13;19.07;;;17.17;;
2674;SDS011;1347;42.122;24.746;2023-04-08T11:43:51;18.50;;;16.60;;
2674;SDS011;1347;42.122;24.746;2023-04-08T11:46:18;17.87;;;16.17;;
2674;SDS011;1347;42.122;24.746;2023-04-08T11:48:59;19.87;;;17.97;;
2674;SDS011;1347;42.122;24.746;2023-04-08T11:51:28;18.50;;;16.70;;
2674;SDS011;1347;42.122;24.746;2023-04-08T11:53:55;21.23;;;17.10;;
2674;SDS011;1347;42.122;24.746;2023-04-08T11:56:22;17.37;;;15.73;;
2674;SDS011;1347;42.122;24.746;2023-04-08T11:58:49;19.13;;;17.40;;
2674;SDS011;1347;42.122;24.746;2023-04-08T12:01:17;19.30;;;16.97;;
2674;SDS011;1347;42.122;24.746;2023-04-08T12:03:54;18.57;;;16.57;;
2674;SDS011;1347;42.122;24.746;2023-04-08T12:06:26;19.13;;;17.27;;
2674;SDS011;1347;42.122;24.746;2023-04-08T12:08:55;18.53;;;16.80;;
2674;SDS011;1347;42.122;24.746;2023-04-08T12:11:22;19.10;;;17.17;;
2674;SDS011;1347;42.122;24.746;2023-04-08T12:13:50;18.67;;;16.10;;
2674;SDS011;1347;42.122;24.746;2023-04-08T12:16:17;18.90;;;17.03;;
2674;SDS011;1347;42.122;24.746;2023-04-08T12:18:45;18.67;;;16.80;;
2674;SDS011;1347;42.122;24.746;2023-04-08T12:21:13;17.90;;;16.20;;
2674;SDS011;1347;42.122;24.746;2023-04-08T12:23:41;18.97;;;17.00;;
2674;SDS011;1347;42.122;24.746;2023-04-08T12:26:08;17.30;;;15.60;;
2674;SDS011;1347;42.122;24.746;2023-04-08T12:28:35;18.63;;;16.77;;
2674;SDS011;1347;42.122;24.746;2023-04-08T12:31:02;18.20;;;16.50;;
2674;SDS011;1347;42.122;24.746;2023-04-08T12:33:29;18.17;;;16.57;;
2674;SDS011;1347;42.122;24.746;2023-04-08T12:35:56;19.37;;;17.40;;
2674;SDS011;1347;42.122;24.746;2023-04-08T12:38:25;19.13;;;17.23;;
2674;SDS011;1347;42.122;24.746;2023-04-08T12:40:53;17.33;;;15.70;;
2674;SDS011;1347;42.122;24.746;2023-04-08T12:43:21;18.43;;;16.60;;
2674;SDS011;1347;42.122;24.746;2023-04-08T12:45:48;17.57;;;15.77;;
2674;SDS011;1347;42.122;24.746;2023-04-08T12:48:16;17.17;;;15.47;;
2674;SDS011;1347;42.122;24.746;2023-04-08T12:50:43;17.57;;;15.77;;
2674;SDS011;1347;42.122;24.746;2023-04-08T12:53:10;17.67;;;15.83;;
2674;SDS011;1347;42.122;24.746;2023-04-08T12:55:37;16.27;;;14.73;;
2674;SDS011;1347;42.122;24.746;2023-04-08T12:58:06;16.53;;;14.93;;
2674;SDS011;1347;42.122;24.746;2023-04-08T13:00:35;21.60;;;16.23;;
2674;SDS011;1347;42.122;24.746;2023-04-08T13:03:03;16.50;;;15.00;;
2674;SDS011;1347;42.122;24.746;2023-04-08T13:05:31;17.13;;;15.47;;
2674;SDS011;1347;42.122;24.746;2023-04-08T13:07:58;15.00;;;13.60;;
2674;SDS011;1347;42.122;24.746;2023-04-08T13:10:25;15.90;;;13.80;;
2674;SDS011;1347;42.122;24.746;2023-04-08T13:12:52;17.10;;;15.30;;
2674;SDS011;1347;42.122;24.746;2023-04-08T13:15:20;15.03;;;13.30;;
2674;SDS011;1347;42.122;24.746;2023-04-08T13:17:47;16.33;;;14.73;;
2674;SDS011;1347;42.122;24.746;2023-04-08T13:20:15;13.73;;;12.47;;
2674;SDS011;1347;42.122;24.746;2023-04-08T13:22:42;14.90;;;13.50;;
2674;SDS011;1347;42.122;24.746;2023-04-08T13:25:10;16.23;;;14.73;;
2674;SDS011;1347;42.122;24.746;2023-04-08T13:27:37;17.87;;;16.00;;
2674;SDS011;1347;42.122;24.746;2023-04-08T13:30:05;14.03;;;12.73;;
2674;SDS011;1347;42.122;24.746;2023-04-08T13:32:35;16.17;;;14.37;;
2674;SDS011;1347;42.122;24.746;2023-04-08T13:35:02;14.80;;;13.40;;
2674;SDS011;1347;42.122;24.746;2023-04-08T13:37:29;19.17;;;15.50;;
2674;SDS011;1347;42.122;24.746;2023-04-08T13:39:55;14.80;;;13.30;;
2674;SDS011;1347;42.122;24.746;2023-04-08T13:42:22;14.03;;;12.73;;
2674;SDS011;1347;42.122;24.746;2023-04-08T13:44:49;14.87;;;13.47;;
2674;SDS011;1347;42.122;24.746;2023-04-08T13:47:16;14.57;;;13.07;;
2674;SDS011;1347;42.122;24.746;2023-04-08T13:49:45;14.67;;;13.27;;
2674;SDS011;1347;42.122;24.746;2023-04-08T13:52:11;12.80;;;11.60;;
2674;SDS011;1347;42.122;24.746;2023-04-08T13:54:38;11.03;;;10.10;;
2674;SDS011;1347;42.122;24.746;2023-04-08T13:57:05;10.03;;;9.10;;
2674;SDS011;1347;42.122;24.746;2023-04-08T13:59:32;10.90;;;9.97;;
2674;SDS011;1347;42.122;24.746;2023-04-08T14:01:59;11.40;;;10.23;;
2674;SDS011;1347;42.122;24.746;2023-04-08T14:04:26;8.97;;;8.17;;
2674;SDS011;1347;42.122;24.746;2023-04-08T14:06:56;7.20;;;6.50;;
2674;SDS011;1347;42.122;24.746;2023-04-08T14:09:23;9.00;;;6.00;;
2674;SDS011;1347;42.122;24.746;2023-04-08T14:11:50;15.30;;;7.80;;
2674;SDS011;1347;42.122;24.746;2023-04-08T14:14:17;7.90;;;7.10;;
2674;SDS011;1347;42.122;24.746;2023-04-08T14:16:44;7.77;;;6.90;;
2674;SDS011;1347;42.122;24.746;2023-04-08T14:19:11;8.63;;;7.20;;
2674;SDS011;1347;42.122;24.746;2023-04-08T14:21:38;13.27;;;8.07;;
2674;SDS011;1347;42.122;24.746;2023-04-08T14:24:06;10.83;;;8.97;;
2674;SDS011;1347;42.122;24.746;2023-04-08T14:26:33;9.33;;;8.47;;
2674;SDS011;1347;42.122;24.746;2023-04-08T14:29:01;8.53;;;7.63;;
2674;SDS011;1347;42.122;24.746;2023-04-08T14:31:29;13.73;;;7.07;;
2674;SDS011;1347;42.122;24.746;2023-04-08T14:33:56;8.73;;;7.77;;
2674;SDS011;1347;42.122;24.746;2023-04-08T14:36:24;7.90;;;7.10;;
2674;SDS011;1347;42.122;24.746;2023-04-08T14:38:52;8.27;;;7.53;;
2674;SDS011;1347;42.122;24.746;2023-04-08T14:41:21;8.30;;;7.50;;
2674;SDS011;1347;42.122;24.746;2023-04-08T14:43:50;7.73;;;7.03;;